createdAt,value
2023-01-19T00:08:02.846Z,1008.03
2023-01-19T00:40:31.717Z,1008.18
2023-01-19T01:08:49.276Z,1008.43
2023-01-19T01:37:28.510Z,1008.51
2023-01-19T02:06:06.996Z,1008.56
2023-01-19T02:34:46.016Z,1008.43
2023-01-19T03:03:32.593Z,1008.55
2023-01-19T03:32:22.079Z,1008.6
2023-01-19T04:01:00.949Z,1008.63
2023-01-19T04:29:38.899Z,1008.81
2023-01-19T04:58:25.106Z,1008.99
2023-01-19T05:27:05.899Z,1009.19
2023-01-19T05:55:54.411Z,1009.32
2023-01-19T06:24:39.517Z,1009.38
2023-01-19T06:53:20.051Z,1009.49
2023-01-19T07:21:55.789Z,1009.62
2023-01-19T07:50:33.358Z,1009.76
2023-01-19T08:19:07.841Z,1010.1
2023-01-19T08:47:45.303Z,1010.27
2023-01-19T09:16:20.084Z,1010.33
2023-01-19T09:44:57.664Z,1010.58
2023-01-19T10:13:39.124Z,1010.39
2023-01-19T10:42:22.190Z,1010.31
2023-01-19T11:11:06.864Z,1010.33
2023-01-19T11:39:43.370Z,1010.23
2023-01-19T12:08:27.868Z,1010.06
2023-01-19T12:37:02.919Z,1009.98
2023-01-19T13:05:37.561Z,1009.78
2023-01-19T13:34:06.729Z,1009.81
2023-01-19T14:02:44.693Z,1009.84
2023-01-19T14:31:18.607Z,1009.97
2023-01-19T14:59:52.912Z,1010.06
2023-01-19T15:28:30.235Z,1010.06
2023-01-19T15:56:55.990Z,1010.02
2023-01-19T16:25:36.676Z,1010.1
2023-01-19T16:54:09.735Z,1010.02
2023-01-19T17:22:50.873Z,1010.02
2023-01-19T17:51:27.343Z,1010.05
2023-01-19T18:20:09.283Z,1010.03
2023-01-19T18:48:49.853Z,1010.11
2023-01-19T19:17:11.371Z,1010.06
2023-01-19T19:45:51.890Z,1010.13
2023-01-19T20:14:32.304Z,1010.23
2023-01-19T20:43:12.857Z,1010.32
2023-01-19T21:11:52.459Z,1010.55
2023-01-19T21:40:34.237Z,1010.71
2023-01-19T22:09:01.076Z,1010.98
2023-01-19T22:37:42.474Z,1011.15
2023-01-19T23:06:22.450Z,1011.21
2023-01-19T23:35:02.606Z,1011.36
